sensor_id;sensor_type;location;lat;lon;timestamp;P1;durP1;ratioP1;P2;durP2;ratioP2
70675;SDS011;59069;52.242;20.900;2023-05-16T00:01:13;8.45;;;3.88;;
70675;SDS011;59069;52.242;20.900;2023-05-16T00:03:40;8.50;;;4.30;;
70675;SDS011;59069;52.242;20.900;2023-05-16T00:06:07;11.30;;;4.90;;
70675;SDS011;59069;52.242;20.900;2023-05-16T00:08:33;10.30;;;4.53;;
70675;SDS011;59069;52.242;20.900;2023-05-16T00:10:58;8.97;;;4.97;;
70675;SDS011;59069;52.242;20.900;2023-05-16T00:13:24;8.77;;;4.93;;
70675;SDS011;59069;52.242;20.900;2023-05-16T00:15:52;8.97;;;4.90;;
70675;SDS011;59069;52.242;20.900;2023-05-16T00:18:20;10.57;;;5.00;;
70675;SDS011;59069;52.242;20.900;2023-05-16T00:20:49;8.95;;;4.68;;
70675;SDS011;59069;52.242;20.900;2023-05-16T00:23:18;10.03;;;5.53;;
70675;SDS011;59069;52.242;20.900;2023-05-16T00:25:43;8.77;;;5.07;;
70675;SDS011;59069;52.242;20.900;2023-05-16T00:28:11;10.55;;;5.15;;
70675;SDS011;59069;52.242;20.900;2023-05-16T00:30:36;9.53;;;4.80;;
70675;SDS011;59069;52.242;20.900;2023-05-16T00:33:02;8.77;;;5.13;;
70675;SDS011;59069;52.242;20.900;2023-05-16T00:35:27;9.90;;;5.23;;
70675;SDS011;59069;52.242;20.900;2023-05-16T00:37:53;9.33;;;5.37;;
70675;SDS011;59069;52.242;20.900;2023-05-16T00:40:19;10.60;;;5.55;;
70675;SDS011;59069;52.242;20.900;2023-05-16T00:42:44;10.77;;;5.37;;
70675;SDS011;59069;52.242;20.900;2023-05-16T00:45:10;9.07;;;4.90;;
70675;SDS011;59069;52.242;20.900;2023-05-16T00:47:35;12.82;;;5.57;;
70675;SDS011;59069;52.242;20.900;2023-05-16T00:50:01;10.93;;;5.60;;
70675;SDS011;59069;52.242;20.900;2023-05-16T00:52:28;13.07;;;5.97;;
70675;SDS011;59069;52.242;20.900;2023-05-16T00:54:54;12.43;;;5.97;;
70675;SDS011;59069;52.242;20.900;2023-05-16T00:57:20;12.52;;;5.97;;
70675;SDS011;59069;52.242;20.900;2023-05-16T00:59:46;11.45;;;5.72;;
70675;SDS011;59069;52.242;20.900;2023-05-16T01:02:12;11.23;;;5.40;;
70675;SDS011;59069;52.242;20.900;2023-05-16T01:04:38;11.45;;;6.43;;
70675;SDS011;59069;52.242;20.900;2023-05-16T01:07:04;11.35;;;6.03;;
70675;SDS011;59069;52.242;20.900;2023-05-16T01:09:30;11.40;;;6.03;;
70675;SDS011;59069;52.242;20.900;2023-05-16T01:14:51;11.18;;;5.90;;
70675;SDS011;59069;52.242;20.900;2023-05-16T01:22:51;9.80;;;5.70;;
70675;SDS011;59069;52.242;20.900;2023-05-16T01:25:38;11.55;;;6.22;;
70675;SDS011;59069;52.242;20.900;2023-05-16T01:28:17;12.15;;;5.80;;
70675;SDS011;59069;52.242;20.900;2023-05-16T01:30:44;11.80;;;6.68;;
70675;SDS011;59069;52.242;20.900;2023-05-16T01:33:09;11.10;;;6.23;;
70675;SDS011;59069;52.242;20.900;2023-05-16T01:35:52;12.82;;;6.30;;
70675;SDS011;59069;52.242;20.900;2023-05-16T01:38:35;10.70;;;6.40;;
70675;SDS011;59069;52.242;20.900;2023-05-16T01:43:42;10.85;;;6.50;;
70675;SDS011;59069;52.242;20.900;2023-05-16T01:46:11;11.85;;;6.13;;
70675;SDS011;59069;52.242;20.900;2023-05-16T01:48:43;12.57;;;6.80;;
70675;SDS011;59069;52.242;20.900;2023-05-16T01:51:20;12.13;;;7.27;;
70675;SDS011;59069;52.242;20.900;2023-05-16T01:53:49;11.57;;;6.97;;
70675;SDS011;59069;52.242;20.900;2023-05-16T01:56:16;14.23;;;6.82;;
70675;SDS011;59069;52.242;20.900;2023-05-16T01:58:42;11.57;;;6.50;;
70675;SDS011;59069;52.242;20.900;2023-05-16T02:01:11;11.63;;;6.70;;
70675;SDS011;59069;52.242;20.900;2023-05-16T02:03:37;15.33;;;7.50;;
70675;SDS011;59069;52.242;20.900;2023-05-16T02:06:03;12.60;;;6.45;;
70675;SDS011;59069;52.242;20.900;2023-05-16T02:08:28;12.40;;;7.27;;
70675;SDS011;59069;52.242;20.900;2023-05-16T02:10:55;12.75;;;7.00;;
70675;SDS011;59069;52.242;20.900;2023-05-16T02:13:20;13.40;;;6.97;;
70675;SDS011;59069;52.242;20.900;2023-05-16T02:15:46;15.57;;;7.68;;
70675;SDS011;59069;52.242;20.900;2023-05-16T02:18:11;14.57;;;7.43;;
70675;SDS011;59069;52.242;20.900;2023-05-16T02:20:37;13.33;;;7.33;;
70675;SDS011;59069;52.242;20.900;2023-05-16T02:23:03;13.45;;;7.13;;
70675;SDS011;59069;52.242;20.900;2023-05-16T02:25:29;11.73;;;7.60;;
70675;SDS011;59069;52.242;20.900;2023-05-16T02:27:55;13.57;;;7.60;;
70675;SDS011;59069;52.242;20.900;2023-05-16T02:30:20;13.83;;;7.77;;
70675;SDS011;59069;52.242;20.900;2023-05-16T02:32:46;13.10;;;7.63;;
70675;SDS011;59069;52.242;20.900;2023-05-16T02:35:13;14.77;;;7.93;;
70675;SDS011;59069;52.242;20.900;2023-05-16T02:37:39;12.25;;;7.45;;
70675;SDS011;59069;52.242;20.900;2023-05-16T02:40:05;11.75;;;7.07;;
70675;SDS011;59069;52.242;20.900;2023-05-16T02:42:31;13.07;;;7.80;;
70675;SDS011;59069;52.242;20.900;2023-05-16T02:44:57;11.97;;;7.20;;
70675;SDS011;59069;52.242;20.900;2023-05-16T02:47:22;11.50;;;7.57;;
70675;SDS011;59069;52.242;20.900;2023-05-16T02:49:48;14.35;;;7.72;;
70675;SDS011;59069;52.242;20.900;2023-05-16T02:52:13;12.33;;;8.17;;
70675;SDS011;59069;52.242;20.900;2023-05-16T02:54:39;11.57;;;7.00;;
70675;SDS011;59069;52.242;20.900;2023-05-16T02:57:04;11.32;;;6.95;;
70675;SDS011;59069;52.242;20.900;2023-05-16T02:59:30;14.43;;;7.63;;
70675;SDS011;59069;52.242;20.900;2023-05-16T03:01:55;12.70;;;6.88;;
70675;SDS011;59069;52.242;20.900;2023-05-16T03:04:21;12.17;;;7.07;;
70675;SDS011;59069;52.242;20.900;2023-05-16T03:06:47;12.02;;;7.32;;
70675;SDS011;59069;52.242;20.900;2023-05-16T03:09:13;13.17;;;7.57;;
70675;SDS011;59069;52.242;20.900;2023-05-16T03:11:38;12.05;;;6.85;;
70675;SDS011;59069;52.242;20.900;2023-05-16T03:14:04;11.27;;;6.70;;
70675;SDS011;59069;52.242;20.900;2023-05-16T03:16:29;10.27;;;6.40;;
70675;SDS011;59069;52.242;20.900;2023-05-16T03:18:56;10.90;;;6.40;;
70675;SDS011;59069;52.242;20.900;2023-05-16T03:21:21;12.23;;;6.23;;
70675;SDS011;59069;52.242;20.900;2023-05-16T03:23:47;11.07;;;6.40;;
70675;SDS011;59069;52.242;20.900;2023-05-16T03:26:12;10.10;;;5.97;;
70675;SDS011;59069;52.242;20.900;2023-05-16T03:28:37;10.90;;;6.60;;
70675;SDS011;59069;52.242;20.900;2023-05-16T03:31:03;10.80;;;6.30;;
70675;SDS011;59069;52.242;20.900;2023-05-16T03:33:28;12.52;;;7.32;;
70675;SDS011;59069;52.242;20.900;2023-05-16T03:35:54;13.63;;;7.37;;
70675;SDS011;59069;52.242;20.900;2023-05-16T03:38:20;11.30;;;6.88;;
70675;SDS011;59069;52.242;20.900;2023-05-16T03:40:45;12.27;;;7.33;;
70675;SDS011;59069;52.242;20.900;2023-05-16T03:43:11;11.03;;;6.67;;
70675;SDS011;59069;52.242;20.900;2023-05-16T03:45:36;13.07;;;6.60;;
70675;SDS011;59069;52.242;20.900;2023-05-16T03:48:01;12.35;;;6.65;;
70675;SDS011;59069;52.242;20.900;2023-05-16T03:50:27;11.97;;;7.07;;
70675;SDS011;59069;52.242;20.900;2023-05-16T03:52:53;13.13;;;7.07;;
70675;SDS011;59069;52.242;20.900;2023-05-16T03:55:18;12.40;;;7.00;;
70675;SDS011;59069;52.242;20.900;2023-05-16T03:57:44;11.20;;;6.97;;
70675;SDS011;59069;52.242;20.900;2023-05-16T04:00:11;12.97;;;6.90;;
70675;SDS011;59069;52.242;20.900;2023-05-16T04:02:38;12.38;;;6.55;;
70675;SDS011;59069;52.242;20.900;2023-05-16T04:05:08;13.57;;;7.75;;
70675;SDS011;59069;52.242;20.900;2023-05-16T04:07:35;10.95;;;6.53;;
70675;SDS011;59069;52.242;20.900;2023-05-16T04:10:02;11.65;;;7.13;;
70675;SDS011;59069;52.242;20.900;2023-05-16T04:12:28;11.07;;;6.87;;
70675;SDS011;59069;52.242;20.900;2023-05-16T04:14:54;11.50;;;7.00;;
70675;SDS011;59069;52.242;20.900;2023-05-16T04:17:20;11.23;;;6.70;;
70675;SDS011;59069;52.242;20.900;2023-05-16T04:19:45;10.73;;;6.90;;
70675;SDS011;59069;52.242;20.900;2023-05-16T04:22:11;13.60;;;6.95;;
70675;SDS011;59069;52.242;20.900;2023-05-16T04:24:36;11.07;;;6.97;;
70675;SDS011;59069;52.242;20.900;2023-05-16T04:27:01;11.23;;;7.00;;
70675;SDS011;59069;52.242;20.900;2023-05-16T04:29:28;11.80;;;6.93;;
70675;SDS011;59069;52.242;20.900;2023-05-16T04:31:55;12.90;;;6.90;;
70675;SDS011;59069;52.242;20.900;2023-05-16T04:34:20;14.67;;;6.77;;
70675;SDS011;59069;52.242;20.900;2023-05-16T04:36:47;25.45;;;8.60;;
70675;SDS011;59069;52.242;20.900;2023-05-16T04:39:12;18.97;;;7.37;;
70675;SDS011;59069;52.242;20.900;2023-05-16T04:41:38;13.27;;;6.57;;
70675;SDS011;59069;52.242;20.900;2023-05-16T04:44:03;9.95;;;6.10;;
70675;SDS011;59069;52.242;20.900;2023-05-16T04:46:29;12.03;;;6.50;;
70675;SDS011;59069;52.242;20.900;2023-05-16T04:48:55;11.63;;;6.68;;
70675;SDS011;59069;52.242;20.900;2023-05-16T04:51:21;11.53;;;6.40;;
70675;SDS011;59069;52.242;20.900;2023-05-16T04:53:46;13.13;;;6.65;;
70675;SDS011;59069;52.242;20.900;2023-05-16T04:56:12;9.77;;;5.83;;
70675;SDS011;59069;52.242;20.900;2023-05-16T04:58:37;11.63;;;6.00;;
70675;SDS011;59069;52.242;20.900;2023-05-16T05:01:03;10.73;;;6.05;;
70675;SDS011;59069;52.242;20.900;2023-05-16T05:03:28;10.40;;;6.93;;
70675;SDS011;59069;52.242;20.900;2023-05-16T05:05:54;11.48;;;5.97;;
70675;SDS011;59069;52.242;20.900;2023-05-16T05:08:20;10.00;;;6.20;;
70675;SDS011;59069;52.242;20.900;2023-05-16T05:10:46;11.38;;;6.53;;
70675;SDS011;59069;52.242;20.900;2023-05-16T05:13:11;11.13;;;6.43;;
70675;SDS011;59069;52.242;20.900;2023-05-16T05:15:37;11.85;;;6.10;;
70675;SDS011;59069;52.242;20.900;2023-05-16T05:18:02;11.60;;;6.30;;
70675;SDS011;59069;52.242;20.900;2023-05-16T05:20:28;10.70;;;6.50;;
70675;SDS011;59069;52.242;20.900;2023-05-16T05:22:53;10.37;;;6.73;;
70675;SDS011;59069;52.242;20.900;2023-05-16T05:25:19;11.47;;;6.40;;
70675;SDS011;59069;52.242;20.900;2023-05-16T05:27:45;11.63;;;6.70;;
70675;SDS011;59069;52.242;20.900;2023-05-16T05:30:10;11.80;;;6.80;;
70675;SDS011;59069;52.242;20.900;2023-05-16T05:32:36;12.57;;;7.10;;
70675;SDS011;59069;52.242;20.900;2023-05-16T05:35:02;12.57;;;7.33;;
70675;SDS011;59069;52.242;20.900;2023-05-16T05:37:28;10.85;;;7.30;;
70675;SDS011;59069;52.242;20.900;2023-05-16T05:39:54;12.82;;;7.28;;
70675;SDS011;59069;52.242;20.900;2023-05-16T05:42:20;12.13;;;7.10;;
70675;SDS011;59069;52.242;20.900;2023-05-16T05:44:45;12.20;;;7.68;;
70675;SDS011;59069;52.242;20.900;2023-05-16T05:47:11;13.27;;;7.13;;
70675;SDS011;59069;52.242;20.900;2023-05-16T05:49:36;12.67;;;7.70;;
70675;SDS011;59069;52.242;20.900;2023-05-16T05:52:02;12.70;;;8.13;;
70675;SDS011;59069;52.242;20.900;2023-05-16T05:54:27;12.17;;;7.20;;
70675;SDS011;59069;52.242;20.900;2023-05-16T05:56:55;12.77;;;8.30;;
70675;SDS011;59069;52.242;20.900;2023-05-16T05:59:24;12.30;;;8.25;;
70675;SDS011;59069;52.242;20.900;2023-05-16T06:01:49;13.30;;;7.83;;
70675;SDS011;59069;52.242;20.900;2023-05-16T06:04:17;13.23;;;8.67;;
70675;SDS011;59069;52.242;20.900;2023-05-16T06:06:43;11.65;;;7.65;;
70675;SDS011;59069;52.242;20.900;2023-05-16T06:09:08;12.63;;;7.93;;
70675;SDS011;59069;52.242;20.900;2023-05-16T06:11:34;11.88;;;8.30;;
70675;SDS011;59069;52.242;20.900;2023-05-16T06:13:59;12.83;;;8.23;;
70675;SDS011;59069;52.242;20.900;2023-05-16T06:16:25;13.47;;;8.70;;
70675;SDS011;59069;52.242;20.900;2023-05-16T06:18:51;12.18;;;8.68;;
70675;SDS011;59069;52.242;20.900;2023-05-16T06:21:16;13.40;;;8.13;;
70675;SDS011;59069;52.242;20.900;2023-05-16T06:23:42;12.02;;;8.48;;
70675;SDS011;59069;52.242;20.900;2023-05-16T06:26:07;13.37;;;8.40;;
70675;SDS011;59069;52.242;20.900;2023-05-16T06:28:33;13.40;;;9.17;;
70675;SDS011;59069;52.242;20.900;2023-05-16T06:30:58;14.00;;;9.70;;
70675;SDS011;59069;52.242;20.900;2023-05-16T06:33:24;14.57;;;9.30;;
70675;SDS011;59069;52.242;20.900;2023-05-16T06:35:49;12.30;;;8.50;;
70675;SDS011;59069;52.242;20.900;2023-05-16T06:38:15;12.98;;;8.18;;
70675;SDS011;59069;52.242;20.900;2023-05-16T06:40:43;13.63;;;8.50;;
70675;SDS011;59069;52.242;20.900;2023-05-16T06:43:08;12.43;;;8.60;;
70675;SDS011;59069;52.242;20.900;2023-05-16T06:45:34;13.10;;;8.30;;
70675;SDS011;59069;52.242;20.900;2023-05-16T06:48:00;12.75;;;8.25;;
70675;SDS011;59069;52.242;20.900;2023-05-16T06:50:26;12.70;;;8.03;;
70675;SDS011;59069;52.242;20.900;2023-05-16T06:52:51;12.63;;;7.20;;
70675;SDS011;59069;52.242;20.900;2023-05-16T06:55:16;12.10;;;7.73;;
70675;SDS011;59069;52.242;20.900;2023-05-16T06:57:42;12.97;;;7.57;;
70675;SDS011;59069;52.242;20.900;2023-05-16T07:00:08;11.98;;;7.43;;
70675;SDS011;59069;52.242;20.900;2023-05-16T07:02:34;11.17;;;7.17;;
70675;SDS011;59069;52.242;20.900;2023-05-16T07:04:59;11.38;;;7.13;;
70675;SDS011;59069;52.242;20.900;2023-05-16T07:07:25;12.00;;;7.30;;
70675;SDS011;59069;52.242;20.900;2023-05-16T07:09:50;11.63;;;7.07;;
70675;SDS011;59069;52.242;20.900;2023-05-16T07:12:16;13.73;;;7.20;;
70675;SDS011;59069;52.242;20.900;2023-05-16T07:14:42;11.57;;;7.45;;
70675;SDS011;59069;52.242;20.900;2023-05-16T07:17:07;11.97;;;7.40;;
70675;SDS011;59069;52.242;20.900;2023-05-16T07:19:33;10.68;;;7.15;;
70675;SDS011;59069;52.242;20.900;2023-05-16T07:21:59;11.27;;;7.03;;
70675;SDS011;59069;52.242;20.900;2023-05-16T07:24:24;9.85;;;5.72;;
70675;SDS011;59069;52.242;20.900;2023-05-16T07:26:50;9.83;;;5.90;;
70675;SDS011;59069;52.242;20.900;2023-05-16T07:29:16;10.47;;;5.67;;
70675;SDS011;59069;52.242;20.900;2023-05-16T07:31:41;10.13;;;4.80;;
70675;SDS011;59069;52.242;20.900;2023-05-16T07:34:06;10.50;;;4.53;;
70675;SDS011;59069;52.242;20.900;2023-05-16T07:36:33;8.10;;;3.85;;
70675;SDS011;59069;52.242;20.900;2023-05-16T07:38:59;9.20;;;4.40;;
70675;SDS011;59069;52.242;20.900;2023-05-16T07:41:24;10.40;;;4.93;;
70675;SDS011;59069;52.242;20.900;2023-05-16T07:43:50;8.67;;;4.63;;
70675;SDS011;59069;52.242;20.900;2023-05-16T07:46:15;8.83;;;5.57;;
70675;SDS011;59069;52.242;20.900;2023-05-16T07:48:41;8.48;;;4.93;;
70675;SDS011;59069;52.242;20.900;2023-05-16T07:51:06;8.33;;;4.53;;
70675;SDS011;59069;52.242;20.900;2023-05-16T07:53:32;7.80;;;3.70;;
70675;SDS011;59069;52.242;20.900;2023-05-16T07:55:58;8.65;;;3.72;;
70675;SDS011;59069;52.242;20.900;2023-05-16T07:58:23;8.83;;;4.40;;
70675;SDS011;59069;52.242;20.900;2023-05-16T08:00:48;7.40;;;3.67;;
70675;SDS011;59069;52.242;20.900;2023-05-16T08:03:14;7.10;;;4.00;;
70675;SDS011;59069;52.242;20.900;2023-05-16T08:05:40;7.50;;;4.00;;
70675;SDS011;59069;52.242;20.900;2023-05-16T08:08:05;7.05;;;3.75;;
70675;SDS011;59069;52.242;20.900;2023-05-16T08:10:31;8.27;;;3.30;;
70675;SDS011;59069;52.242;20.900;2023-05-16T08:12:56;8.23;;;3.37;;
70675;SDS011;59069;52.242;20.900;2023-05-16T08:15:22;9.85;;;3.70;;
70675;SDS011;59069;52.242;20.900;2023-05-16T08:17:47;7.60;;;3.50;;
70675;SDS011;59069;52.242;20.900;2023-05-16T08:20:13;7.28;;;3.47;;
70675;SDS011;59069;52.242;20.900;2023-05-16T08:22:38;8.53;;;3.63;;
70675;SDS011;59069;52.242;20.900;2023-05-16T08:25:04;7.80;;;3.40;;
70675;SDS011;59069;52.242;20.900;2023-05-16T08:27:30;6.57;;;3.30;;
70675;SDS011;59069;52.242;20.900;2023-05-16T08:29:55;8.07;;;3.67;;
70675;SDS011;59069;52.242;20.900;2023-05-16T08:32:21;7.30;;;3.15;;
70675;SDS011;59069;52.242;20.900;2023-05-16T08:34:47;6.63;;;3.40;;
70675;SDS011;59069;52.242;20.900;2023-05-16T08:37:12;6.70;;;3.65;;
70675;SDS011;59069;52.242;20.900;2023-05-16T08:39:38;6.83;;;3.50;;
70675;SDS011;59069;52.242;20.900;2023-05-16T08:42:04;7.65;;;3.90;;
70675;SDS011;59069;52.242;20.900;2023-05-16T08:44:30;8.63;;;3.70;;
70675;SDS011;59069;52.242;20.900;2023-05-16T08:46:55;6.07;;;3.22;;
70675;SDS011;59069;52.242;20.900;2023-05-16T08:49:21;7.43;;;3.22;;
70675;SDS011;59069;52.242;20.900;2023-05-16T08:51:48;7.53;;;3.83;;
70675;SDS011;59069;52.242;20.900;2023-05-16T08:54:15;6.50;;;3.67;;
70675;SDS011;59069;52.242;20.900;2023-05-16T08:56:42;6.72;;;3.55;;
70675;SDS011;59069;52.242;20.900;2023-05-16T08:59:08;6.60;;;3.50;;
70675;SDS011;59069;52.242;20.900;2023-05-16T09:01:36;7.40;;;3.57;;
70675;SDS011;59069;52.242;20.900;2023-05-16T09:04:02;7.45;;;4.25;;
70675;SDS011;59069;52.242;20.900;2023-05-16T09:06:30;7.15;;;3.60;;
70675;SDS011;59069;52.242;20.900;2023-05-16T09:08:56;7.13;;;3.20;;
70675;SDS011;59069;52.242;20.900;2023-05-16T09:11:22;6.75;;;3.35;;
70675;SDS011;59069;52.242;20.900;2023-05-16T09:13:48;5.57;;;2.10;;
70675;SDS011;59069;52.242;20.900;2023-05-16T09:16:17;7.20;;;2.35;;
70675;SDS011;59069;52.242;20.900;2023-05-16T09:18:44;5.93;;;2.30;;
70675;SDS011;59069;52.242;20.900;2023-05-16T09:21:12;5.77;;;2.00;;
70675;SDS011;59069;52.242;20.900;2023-05-16T09:23:41;5.82;;;2.15;;
70675;SDS011;59069;52.242;20.900;2023-05-16T09:26:07;6.00;;;3.03;;
70675;SDS011;59069;52.242;20.900;2023-05-16T09:28:33;7.80;;;2.23;;
70675;SDS011;59069;52.242;20.900;2023-05-16T09:31:01;7.35;;;2.17;;
70675;SDS011;59069;52.242;20.900;2023-05-16T09:33:26;6.13;;;2.20;;
70675;SDS011;59069;52.242;20.900;2023-05-16T09:35:59;5.63;;;2.63;;
70675;SDS011;59069;52.242;20.900;2023-05-16T09:38:26;6.03;;;2.58;;
70675;SDS011;59069;52.242;20.900;2023-05-16T09:40:52;6.93;;;3.00;;
70675;SDS011;59069;52.242;20.900;2023-05-16T09:43:21;6.43;;;2.72;;
70675;SDS011;59069;52.242;20.900;2023-05-16T09:45:50;6.03;;;2.45;;
70675;SDS011;59069;52.242;20.900;2023-05-16T09:48:16;5.87;;;2.50;;
70675;SDS011;59069;52.242;20.900;2023-05-16T09:50:46;6.47;;;2.40;;
70675;SDS011;59069;52.242;20.900;2023-05-16T09:53:25;7.57;;;2.75;;
70675;SDS011;59069;52.242;20.900;2023-05-16T09:55:58;7.00;;;2.47;;
70675;SDS011;59069;52.242;20.900;2023-05-16T09:58:29;6.43;;;2.58;;
70675;SDS011;59069;52.242;20.900;2023-05-16T10:00:59;6.97;;;2.43;;
70675;SDS011;59069;52.242;20.900;2023-05-16T10:03:25;6.38;;;2.45;;
70675;SDS011;59069;52.242;20.900;2023-05-16T10:05:52;5.80;;;2.30;;
70675;SDS011;59069;52.242;20.900;2023-05-16T10:08:19;6.05;;;2.30;;
70675;SDS011;59069;52.242;20.900;2023-05-16T10:10:52;5.60;;;2.38;;
70675;SDS011;59069;52.242;20.900;2023-05-16T10:13:23;5.80;;;2.33;;
70675;SDS011;59069;52.242;20.900;2023-05-16T10:15:54;6.35;;;2.50;;
70675;SDS011;59069;52.242;20.900;2023-05-16T10:18:21;7.00;;;2.70;;
70675;SDS011;59069;52.242;20.900;2023-05-16T10:20:52;6.20;;;2.42;;
70675;SDS011;59069;52.242;20.900;2023-05-16T10:23:19;5.75;;;2.30;;
70675;SDS011;59069;52.242;20.900;2023-05-16T10:25:47;7.00;;;2.50;;
70675;SDS011;59069;52.242;20.900;2023-05-16T10:28:16;5.50;;;2.45;;
70675;SDS011;59069;52.242;20.900;2023-05-16T10:30:43;6.10;;;2.53;;
70675;SDS011;59069;52.242;20.900;2023-05-16T10:33:13;5.55;;;2.40;;
70675;SDS011;59069;52.242;20.900;2023-05-16T10:35:39;6.30;;;2.55;;
70675;SDS011;59069;52.242;20.900;2023-05-16T10:38:06;5.43;;;2.00;;
70675;SDS011;59069;52.242;20.900;2023-05-16T10:40:34;5.85;;;1.95;;
70675;SDS011;59069;52.242;20.900;2023-05-16T10:43:02;5.63;;;2.05;;
70675;SDS011;59069;52.242;20.900;2023-05-16T10:45:28;5.50;;;1.98;;
70675;SDS011;59069;52.242;20.900;2023-05-16T10:53:16;5.85;;;2.00;;
70675;SDS011;59069;52.242;20.900;2023-05-16T10:55:47;5.95;;;1.92;;
70675;SDS011;59069;52.242;20.900;2023-05-16T10:58:22;5.00;;;2.03;;
70675;SDS011;59069;52.242;20.900;2023-05-16T11:01:15;8.65;;;2.00;;
70675;SDS011;59069;52.242;20.900;2023-05-16T11:06:28;7.03;;;2.08;;
70675;SDS011;59069;52.242;20.900;2023-05-16T11:22:24;6.25;;;2.13;;
70675;SDS011;59069;52.242;20.900;2023-05-16T11:27:27;6.03;;;2.30;;
70675;SDS011;59069;52.242;20.900;2023-05-16T11:29:53;5.43;;;2.00;;
70675;SDS011;59069;52.242;20.900;2023-05-16T11:32:22;7.20;;;2.25;;
70675;SDS011;59069;52.242;20.900;2023-05-16T11:34:49;7.40;;;2.03;;
70675;SDS011;59069;52.242;20.900;2023-05-16T11:37:16;5.82;;;2.50;;
70675;SDS011;59069;52.242;20.900;2023-05-16T11:39:43;6.47;;;2.37;;
70675;SDS011;59069;52.242;20.900;2023-05-16T11:42:09;6.25;;;2.30;;
70675;SDS011;59069;52.242;20.900;2023-05-16T11:44:34;5.30;;;2.43;;
70675;SDS011;59069;52.242;20.900;2023-05-16T11:47:00;5.40;;;2.58;;
70675;SDS011;59069;52.242;20.900;2023-05-16T11:49:26;5.68;;;2.63;;
70675;SDS011;59069;52.242;20.900;2023-05-16T11:51:52;5.30;;;2.50;;
70675;SDS011;59069;52.242;20.900;2023-05-16T11:54:18;5.60;;;2.45;;
70675;SDS011;59069;52.242;20.900;2023-05-16T11:56:44;5.65;;;2.65;;
70675;SDS011;59069;52.242;20.900;2023-05-16T11:59:10;6.67;;;2.60;;
70675;SDS011;59069;52.242;20.900;2023-05-16T12:01:37;5.65;;;2.72;;
70675;SDS011;59069;52.242;20.900;2023-05-16T12:04:09;6.22;;;2.80;;
70675;SDS011;59069;52.242;20.900;2023-05-16T12:06:39;7.10;;;2.67;;
70675;SDS011;59069;52.242;20.900;2023-05-16T12:09:12;6.20;;;2.88;;
70675;SDS011;59069;52.242;20.900;2023-05-16T12:11:39;5.82;;;2.80;;
70675;SDS011;59069;52.242;20.900;2023-05-16T12:14:06;6.53;;;2.67;;
70675;SDS011;59069;52.242;20.900;2023-05-16T12:16:33;5.35;;;2.70;;
70675;SDS011;59069;52.242;20.900;2023-05-16T12:19:06;5.50;;;2.20;;
70675;SDS011;59069;52.242;20.900;2023-05-16T12:21:32;6.13;;;2.65;;
70675;SDS011;59069;52.242;20.900;2023-05-16T12:23:59;5.72;;;2.40;;
70675;SDS011;59069;52.242;20.900;2023-05-16T12:26:26;5.85;;;2.67;;
70675;SDS011;59069;52.242;20.900;2023-05-16T12:28:57;5.88;;;2.65;;
70675;SDS011;59069;52.242;20.900;2023-05-16T12:31:30;6.03;;;2.70;;
70675;SDS011;59069;52.242;20.900;2023-05-16T12:33:59;6.15;;;2.70;;
70675;SDS011;59069;52.242;20.900;2023-05-16T12:36:25;6.53;;;2.40;;
70675;SDS011;59069;52.242;20.900;2023-05-16T12:38:58;6.10;;;2.80;;
70675;SDS011;59069;52.242;20.900;2023-05-16T12:41:28;5.78;;;2.70;;
70675;SDS011;59069;52.242;20.900;2023-05-16T12:44:10;5.17;;;2.17;;
70675;SDS011;59069;52.242;20.900;2023-05-16T12:46:41;5.80;;;2.78;;
70675;SDS011;59069;52.242;20.900;2023-05-16T12:49:10;7.82;;;2.42;;
70675;SDS011;59069;52.242;20.900;2023-05-16T12:51:37;6.20;;;2.35;;
70675;SDS011;59069;52.242;20.900;2023-05-16T12:54:07;6.73;;;2.90;;
70675;SDS011;59069;52.242;20.900;2023-05-16T12:56:35;5.68;;;2.60;;
70675;SDS011;59069;52.242;20.900;2023-05-16T12:59:04;7.95;;;2.58;;
70675;SDS011;59069;52.242;20.900;2023-05-16T13:01:29;6.10;;;2.87;;
70675;SDS011;59069;52.242;20.900;2023-05-16T13:03:55;6.93;;;2.63;;
70675;SDS011;59069;52.242;20.900;2023-05-16T13:06:20;5.67;;;2.80;;
70675;SDS011;59069;52.242;20.900;2023-05-16T13:08:46;8.23;;;3.13;;
70675;SDS011;59069;52.242;20.900;2023-05-16T13:11:11;6.13;;;3.00;;
70675;SDS011;59069;52.242;20.900;2023-05-16T13:13:37;5.90;;;3.00;;
70675;SDS011;59069;52.242;20.900;2023-05-16T13:16:02;6.60;;;3.20;;
70675;SDS011;59069;52.242;20.900;2023-05-16T13:18:28;6.93;;;2.97;;
70675;SDS011;59069;52.242;20.900;2023-05-16T13:20:54;6.47;;;2.88;;
70675;SDS011;59069;52.242;20.900;2023-05-16T13:23:20;6.95;;;3.03;;
70675;SDS011;59069;52.242;20.900;2023-05-16T13:25:45;6.30;;;3.03;;
70675;SDS011;59069;52.242;20.900;2023-05-16T13:28:11;5.45;;;2.20;;
70675;SDS011;59069;52.242;20.900;2023-05-16T13:30:36;5.70;;;2.40;;
70675;SDS011;59069;52.242;20.900;2023-05-16T13:33:02;7.20;;;2.57;;
70675;SDS011;59069;52.242;20.900;2023-05-16T13:35:28;6.22;;;2.40;;
70675;SDS011;59069;52.242;20.900;2023-05-16T13:37:53;11.90;;;2.70;;
70675;SDS011;59069;52.242;20.900;2023-05-16T13:40:19;6.25;;;2.58;;
70675;SDS011;59069;52.242;20.900;2023-05-16T13:42:45;6.00;;;2.67;;
70675;SDS011;59069;52.242;20.900;2023-05-16T13:45:10;5.88;;;2.30;;
70675;SDS011;59069;52.242;20.900;2023-05-16T13:47:36;6.33;;;2.20;;
70675;SDS011;59069;52.242;20.900;2023-05-16T13:50:03;5.47;;;2.00;;
70675;SDS011;59069;52.242;20.900;2023-05-16T13:52:33;5.05;;;1.95;;
70675;SDS011;59069;52.242;20.900;2023-05-16T13:54:59;4.70;;;1.80;;
70675;SDS011;59069;52.242;20.900;2023-05-16T13:57:24;5.17;;;2.00;;
70675;SDS011;59069;52.242;20.900;2023-05-16T13:59:51;4.88;;;2.00;;
70675;SDS011;59069;52.242;20.900;2023-05-16T14:02:17;5.43;;;1.90;;
70675;SDS011;59069;52.242;20.900;2023-05-16T14:04:43;4.77;;;1.90;;
70675;SDS011;59069;52.242;20.900;2023-05-16T14:07:08;5.60;;;1.80;;
70675;SDS011;59069;52.242;20.900;2023-05-16T14:09:34;5.30;;;1.90;;
70675;SDS011;59069;52.242;20.900;2023-05-16T14:12:03;5.78;;;1.80;;
70675;SDS011;59069;52.242;20.900;2023-05-16T14:14:32;6.00;;;2.30;;
70675;SDS011;59069;52.242;20.900;2023-05-16T14:16:58;9.55;;;5.10;;
70675;SDS011;59069;52.242;20.900;2023-05-16T14:19:24;5.00;;;2.00;;
70675;SDS011;59069;52.242;20.900;2023-05-16T14:21:49;5.47;;;2.00;;
70675;SDS011;59069;52.242;20.900;2023-05-16T14:24:15;4.87;;;1.70;;
70675;SDS011;59069;52.242;20.900;2023-05-16T14:26:40;5.27;;;2.00;;
70675;SDS011;59069;52.242;20.900;2023-05-16T14:29:06;6.33;;;2.07;;
70675;SDS011;59069;52.242;20.900;2023-05-16T14:31:31;5.97;;;1.80;;
70675;SDS011;59069;52.242;20.900;2023-05-16T14:33:57;4.70;;;2.00;;
70675;SDS011;59069;52.242;20.900;2023-05-16T14:36:23;6.07;;;1.83;;
70675;SDS011;59069;52.242;20.900;2023-05-16T14:38:49;5.05;;;1.90;;
70675;SDS011;59069;52.242;20.900;2023-05-16T14:41:15;5.13;;;2.07;;
70675;SDS011;59069;52.242;20.900;2023-05-16T14:43:40;7.13;;;1.80;;
70675;SDS011;59069;52.242;20.900;2023-05-16T14:46:06;6.10;;;1.83;;
70675;SDS011;59069;52.242;20.900;2023-05-16T14:48:31;7.27;;;1.90;;
70675;SDS011;59069;52.242;20.900;2023-05-16T14:50:57;5.85;;;2.10;;
70675;SDS011;59069;52.242;20.900;2023-05-16T14:53:23;5.27;;;1.67;;
70675;SDS011;59069;52.242;20.900;2023-05-16T14:55:48;4.53;;;1.80;;
70675;SDS011;59069;52.242;20.900;2023-05-16T14:58:14;5.13;;;2.00;;
70675;SDS011;59069;52.242;20.900;2023-05-16T15:00:40;5.82;;;2.08;;